Time;durP1;ratioP1;P1;durP2;ratioP2;P2;SDS_P1;SDS_P2;PMS_P1;PMS_P2;Temp;Humidity;BMP_temperature;BMP_pressure;BME280_temperature;BME280_humidity;BME280_pressure;Samples;Min_cycle;Max_cycle;Signal;HPM_P1;HPM_P2
2022/01/07 00:01:57;;;;;;;;;14.00;13.50;;;;;5.19;68.08;101186.84;4996787;28;45451;-73
2022/01/07 00:04:22;;;;;;;;;13.75;13.75;;;;;5.15;67.76;101178.91;4997388;28;45749;-76
2022/01/07 00:06:48;;;;;;;;;17.75;14.50;;;;;5.10;68.73;101174.34;4999299;28;45477;-76
2022/01/07 00:09:13;;;;;;;;;13.75;12.75;;;;;5.08;69.14;101181.25;4999693;28;47189;-77
2022/01/07 00:11:38;;;;;;;;;12.50;9.00;;;;;5.10;69.50;101184.78;5000134;28;45512;-76
2022/01/07 00:14:04;;;;;;;;;14.50;12.00;;;;;5.01;69.71;101177.50;5000783;28;45861;-77
2022/01/07 00:16:29;;;;;;;;;14.00;13.50;;;;;4.98;70.47;101158.25;5000872;28;45455;-76
2022/01/07 00:18:56;;;;;;;;;12.67;12.00;;;;;4.89;70.84;101163.13;5000638;28;46190;-77
2022/01/07 00:21:22;;;;;;;;;13.00;12.25;;;;;4.74;71.55;101155.59;5000741;28;45348;-75
2022/01/07 00:23:47;;;;;;;;;18.25;13.75;;;;;4.57;73.00;101140.22;4999578;28;45341;-76
2022/01/07 00:26:13;;;;;;;;;11.25;8.00;;;;;4.60;72.83;101149.00;5000576;28;45565;-77
2022/01/07 00:28:38;;;;;;;;;15.33;14.00;;;;;4.40;73.49;101128.25;5000204;28;45500;-77
2022/01/07 00:31:03;;;;;;;;;14.00;12.67;;;;;4.12;74.37;101087.19;5000105;28;45309;-78
2022/01/07 00:33:29;;;;;;;;;15.67;12.00;;;;;4.37;74.94;101119.41;5000079;28;45703;-76
2022/01/07 00:35:56;;;;;;;;;16.00;14.33;;;;;4.36;75.05;101134.16;4999304;28;45532;-74
2022/01/07 00:38:22;;;;;;;;;13.00;13.00;;;;;4.37;75.38;101130.72;5000408;28;46469;-72
2022/01/07 00:40:47;;;;;;;;;12.33;12.33;;;;;4.31;76.03;101103.53;5000036;28;45175;-75
2022/01/07 00:43:14;;;;;;;;;14.50;14.50;;;;;4.24;76.60;101113.72;5000279;28;45321;-73
2022/01/07 00:45:39;;;;;;;;;13.00;13.00;;;;;4.09;76.95;101104.41;5000273;28;45349;-77
2022/01/07 00:48:05;;;;;;;;;13.33;12.33;;;;;4.17;76.62;101100.38;4999658;28;45426;-75
2022/01/07 00:50:31;;;;;;;;;14.00;13.33;;;;;4.10;76.79;101086.25;4999851;28;45318;-75
2022/01/07 00:52:57;;;;;;;;;8.00;8.00;;;;;4.21;76.28;101118.84;5000416;28;45296;-75
2022/01/07 00:55:23;;;;;;;;;11.33;10.00;;;;;4.18;76.92;101123.00;4997546;28;45312;-74
2022/01/07 00:57:49;;;;;;;;;16.33;13.67;;;;;4.20;77.59;101118.78;5000006;28;46512;-72
2022/01/07 01:00:18;;;;;;;;;12.00;12.00;;;;;4.17;77.59;101111.69;4999903;28;45238;-75
2022/01/07 01:02:44;;;;;;;;;16.00;14.33;;;;;4.15;77.43;101091.63;5000050;28;45372;-73
2022/01/07 01:05:11;;;;;;;;;9.33;8.00;;;;;4.07;77.73;101095.63;5000379;28;45326;-76
2022/01/07 01:07:37;;;;;;;;;15.00;12.33;;;;;4.15;77.94;101102.03;5000145;28;45524;-74
2022/01/07 01:10:07;;;;;;;;;11.00;11.00;;;;;4.25;77.34;101107.69;4999435;28;45359;-75
2022/01/07 01:12:34;;;;;;;;;8.67;8.00;;;;;4.22;77.16;101112.78;4998930;28;45290;-76
2022/01/07 01:15:00;;;;;;;;;11.67;9.00;;;;;4.09;77.47;101081.81;4999768;28;45429;-77
2022/01/07 01:17:25;;;;;;;;;11.67;11.33;;;;;4.12;76.98;101088.91;4998742;28;45488;-76
2022/01/07 01:19:50;;;;;;;;;13.00;13.00;;;;;4.11;78.18;101098.44;4999094;28;45309;-77
2022/01/07 01:22:16;;;;;;;;;7.67;6.67;;;;;3.99;77.07;101070.16;4999750;28;45305;-75
2022/01/07 01:24:41;;;;;;;;;11.67;10.67;;;;;4.13;78.10;101075.91;4999814;28;45616;-75
2022/01/07 01:27:07;;;;;;;;;12.33;9.00;;;;;4.16;77.76;101098.59;4999266;28;46290;-77
2022/01/07 01:29:32;;;;;;;;;16.00;12.67;;;;;4.14;77.61;101090.72;4999691;28;45332;-76
2022/01/07 01:31:58;;;;;;;;;9.67;9.67;;;;;4.17;77.50;101084.75;4999636;28;45509;-74
2022/01/07 01:34:23;;;;;;;;;12.00;10.33;;;;;4.23;77.95;101090.19;4999234;28;45470;-77
2022/01/07 01:36:48;;;;;;;;;13.67;12.67;;;;;4.16;77.72;101101.22;4998904;28;45464;-77
2022/01/07 01:39:14;;;;;;;;;12.67;12.67;;;;;4.12;77.31;101079.38;4999603;28;45356;-76
2022/01/07 01:41:41;;;;;;;;;15.67;12.00;;;;;4.23;77.06;101085.00;4999511;28;45416;-77
2022/01/07 01:44:07;;;;;;;;;12.33;12.33;;;;;4.05;76.55;101055.59;4999505;28;45277;-76
2022/01/07 01:46:32;;;;;;;;;13.67;9.00;;;;;4.25;77.23;101084.19;4999201;28;46455;-75
2022/01/07 01:48:57;;;;;;;;;14.00;12.00;;;;;3.99;77.30;101059.72;4998926;28;45580;-74
2022/01/07 01:51:23;;;;;;;;;13.67;9.67;;;;;4.08;77.30;101060.91;4999432;28;45301;-76
2022/01/07 01:53:48;;;;;;;;;1.67;1.67;;;;;4.16;76.66;101081.25;4998758;28;45426;-76
2022/01/07 01:56:14;;;;;;;;;11.00;9.67;;;;;4.23;77.34;101083.25;4999085;28;47277;-77
2022/01/07 01:58:39;;;;;;;;;10.33;8.00;;;;;4.24;76.74;101076.34;4998036;28;45320;-77
2022/01/07 02:01:05;;;;;;;;;11.33;11.33;;;;;4.31;77.21;101093.09;4999388;28;45401;-75
2022/01/07 02:03:30;;;;;;;;;14.00;10.67;;;;;4.38;77.02;101076.88;4999133;28;45475;-76
2022/01/07 02:05:56;;;;;;;;;12.67;11.33;;;;;4.33;77.24;101065.34;4999119;28;45374;-76
2022/01/07 02:08:21;;;;;;;;;8.00;8.00;;;;;4.42;77.19;101076.13;4998587;28;45310;-74
2022/01/07 02:10:47;;;;;;;;;12.67;12.00;;;;;4.37;77.25;101062.91;4999641;28;45412;-75
2022/01/07 02:13:15;;;;;;;;;10.00;10.00;;;;;4.39;77.01;101055.16;4998281;28;46887;-76
2022/01/07 02:15:41;;;;;;;;;8.33;6.00;;;;;4.40;76.69;101051.72;4999091;28;45421;-76
2022/01/07 02:18:07;;;;;;;;;14.67;12.33;;;;;4.48;76.82;101068.56;4998788;28;45400;-75
2022/01/07 02:20:32;;;;;;;;;15.00;10.00;;;;;4.44;77.04;101059.69;4998791;28;45269;-76
2022/01/07 02:22:58;;;;;;;;;12.33;12.33;;;;;4.36;77.34;101042.88;4999443;28;45552;-76
2022/01/07 02:25:25;;;;;;;;;13.00;13.00;;;;;4.42;77.07;101052.66;4998720;28;46290;-76
2022/01/07 02:27:51;;;;;;;;;18.33;17.00;;;;;4.45;77.46;101048.44;4998013;28;45360;-76
2022/01/07 02:30:19;;;;;;;;;13.00;10.00;;;;;4.32;77.36;101038.41;4998251;28;45507;-75
2022/01/07 02:32:45;;;;;;;;;13.00;13.00;;;;;4.46;77.98;101064.97;4998773;28;45227;-77
2022/01/07 02:35:12;;;;;;;;;16.00;16.00;;;;;4.45;77.73;101057.97;4998174;28;46295;-76
2022/01/07 02:37:38;;;;;;;;;13.33;7.33;;;;;4.40;77.73;101041.28;4998701;28;45282;-76
2022/01/07 02:40:06;;;;;;;;;2.33;2.33;;;;;4.30;77.75;101029.63;4998452;28;45447;-74
2022/01/07 02:42:32;;;;;;;;;16.67;15.33;;;;;4.39;78.40;101045.63;4998848;28;45309;-76
2022/01/07 02:44:57;;;;;;;;;17.00;16.00;;;;;4.40;77.94;101039.56;4998752;28;46469;-77
2022/01/07 02:47:25;;;;;;;;;14.00;12.33;;;;;4.33;78.38;101019.31;4998798;28;45396;-76
2022/01/07 02:49:51;;;;;;;;;11.67;10.00;;;;;4.41;78.32;101022.19;4997563;28;45467;-74
2022/01/07 02:52:16;;;;;;;;;15.00;13.67;;;;;4.31;78.11;101001.84;4998627;28;45265;-77
2022/01/07 02:54:42;;;;;;;;;9.00;5.00;;;;;4.39;78.08;101023.88;4980784;28;46471;-74
2022/01/07 02:57:07;;;;;;;;;14.33;13.00;;;;;4.39;77.64;101027.38;4999343;28;45139;-71
2022/01/07 02:59:33;;;;;;;;;14.00;13.67;;;;;4.33;78.52;101013.19;5012302;28;45288;-74
2022/01/07 03:01:58;;;;;;;;;12.33;12.00;;;;;4.47;78.00;101038.09;5014541;28;44774;-74
2022/01/07 03:04:26;;;;;;;;;10.00;10.00;;;;;4.53;77.58;101020.03;5013966;28;45360;-74
2022/01/07 03:06:52;;;;;;;;;12.00;9.67;;;;;4.51;78.01;101014.75;5014214;28;45292;-74
2022/01/07 03:09:17;;;;;;;;;15.00;10.00;;;;;4.51;77.99;101030.41;5013073;28;45284;-73
2022/01/07 03:11:43;;;;;;;;;8.00;8.00;;;;;4.44;78.10;101007.53;5010304;28;45984;-74
2022/01/07 03:14:08;;;;;;;;;8.50;8.50;;;;;4.52;78.17;101020.88;5012152;28;46187;-77
2022/01/07 03:16:34;;;;;;;;;13.33;13.33;;;;;4.43;78.28;100997.94;5011059;28;45380;-77
2022/01/07 03:18:59;;;;;;;;;13.33;13.33;;;;;4.53;78.10;101013.09;4999453;28;45300;-77
2022/01/07 03:21:25;;;;;;;;;14.67;11.67;;;;;4.57;78.13;101016.72;4998075;28;45459;-74
2022/01/07 03:23:51;;;;;;;;;15.33;12.00;;;;;4.65;77.91;101019.56;4996800;28;45510;-75
2022/01/07 03:26:16;;;;;;;;;12.33;10.67;;;;;4.65;77.46;101027.41;4998044;28;45315;-76
2022/01/07 03:28:44;;;;;;;;;10.00;9.00;;;;;4.63;77.27;101005.59;4997891;28;45515;-73
2022/01/07 03:31:10;;;;;;;;;12.67;10.33;;;;;4.76;77.76;101020.88;4998664;28;45357;-75
2022/01/07 03:33:35;;;;;;;;;10.50;10.50;;;;;4.78;77.80;101024.41;4996073;28;45580;-77
2022/01/07 03:36:01;;;;;;;;;9.50;8.25;;;;;4.82;76.80;101024.56;4998221;28;45421;-75
2022/01/07 03:38:26;;;;;;;;;11.33;9.67;;;;;4.84;76.94;101009.88;4997726;28;45518;-73
2022/01/07 03:40:52;;;;;;;;;7.50;7.50;;;;;4.80;76.99;101005.34;4996930;28;45527;-76
2022/01/07 03:43:17;;;;;;;;;8.50;5.75;;;;;4.90;76.66;101014.38;4997451;28;45479;-75
2022/01/07 03:45:43;;;;;;;;;8.75;6.75;;;;;4.79;76.50;100993.13;4997634;28;45253;-74
2022/01/07 03:48:08;;;;;;;;;9.00;7.00;;;;;4.79;76.38;100997.47;4997487;28;45445;-75
2022/01/07 03:50:34;;;;;;;;;8.00;8.00;;;;;4.87;76.40;101006.47;4997573;28;45215;-76
2022/01/07 03:53:00;;;;;;;;;10.00;9.50;;;;;4.88;76.58;101007.34;4997104;28;45452;-77
2022/01/07 03:55:29;;;;;;;;;10.00;8.50;;;;;4.86;76.45;101005.56;4997487;28;45179;-76
2022/01/07 03:57:54;;;;;;;;;8.00;8.00;;;;;4.69;76.73;100974.50;4997308;28;45768;-75
2022/01/07 04:00:32;;;;;;;;;11.50;9.50;;;;;4.91;76.92;101007.44;4997579;28;45390;-77
2022/01/07 04:02:59;;;;;;;;;8.50;6.00;;;;;4.94;75.82;100989.28;4997711;28;46536;-78
2022/01/07 04:05:25;;;;;;;;;11.67;9.67;;;;;4.93;76.10;100996.22;4997036;28;45400;-77
2022/01/07 04:07:50;;;;;;;;;2.75;2.75;;;;;4.95;75.77;100991.06;4997672;28;45182;-77
2022/01/07 04:10:16;;;;;;;;;9.00;9.00;;;;;4.91;75.97;100983.94;4996110;28;45396;-77
2022/01/07 04:12:41;;;;;;;;;9.75;6.00;;;;;4.86;75.64;100948.16;4997320;28;47061;-77
2022/01/07 04:15:08;;;;;;;;;5.00;5.00;;;;;4.99;75.44;100972.03;4997406;28;45253;-77
2022/01/07 04:17:47;;;;;;;;;13.25;9.75;;;;;4.97;75.59;100973.72;4997169;28;45314;-76
2022/01/07 04:20:16;;;;;;;;;10.25;9.50;;;;;4.90;75.94;100966.50;4995999;28;46671;-77
2022/01/07 04:22:42;;;;;;;;;9.00;7.25;;;;;4.95;75.60;100980.63;4997302;28;45353;-77
2022/01/07 04:25:17;;;;;;;;;10.00;10.00;;;;;4.91;75.66;100965.69;4997374;28;45259;-78
2022/01/07 04:27:46;;;;;;;;;6.00;6.00;;;;;4.92;75.62;100957.91;4996842;28;45163;-76
2022/01/07 04:30:13;;;;;;;;;12.75;7.50;;;;;4.96;75.66;100964.13;4997121;28;45322;-75
2022/01/07 04:32:38;;;;;;;;;5.75;5.50;;;;;5.00;75.46;100973.81;4996653;28;46427;-77
2022/01/07 04:35:05;;;;;;;;;7.00;6.25;;;;;5.00;75.14;100959.03;4996908;28;45185;-76
2022/01/07 04:37:31;;;;;;;;;6.00;6.00;;;;;4.95;74.92;100957.13;4997291;28;45246;-76
2022/01/07 04:39:56;;;;;;;;;8.25;8.25;;;;;4.96;75.53;100959.78;4996754;28;45305;-77
2022/01/07 04:42:21;;;;;;;;;9.00;7.25;;;;;5.04;75.46;100968.75;4994785;28;47067;-77
2022/01/07 04:44:47;;;;;;;;;5.00;5.00;;;;;5.09;75.24;100974.13;4996470;28;45265;-77
2022/01/07 04:47:12;;;;;;;;;7.25;7.25;;;;;4.99;75.33;100954.66;4997097;28;45230;-77
2022/01/07 04:49:38;;;;;;;;;8.75;5.50;;;;;4.95;75.56;100967.56;4996354;28;45477;-74
2022/01/07 04:52:04;;;;;;;;;10.25;7.50;;;;;5.05;75.47;100987.94;4977521;28;45782;-75
2022/01/07 04:54:30;;;;;;;;;4.75;4.00;;;;;5.08;75.20;100986.28;4987074;28;45338;-78
2022/01/07 04:56:55;;;;;;;;;6.00;5.00;;;;;5.03;75.12;100968.72;5000205;28;45310;-77
2022/01/07 04:59:21;;;;;;;;;7.00;5.75;;;;;5.01;75.67;100966.03;5000638;28;45292;-77
2022/01/07 05:01:47;;;;;;;;;10.00;5.00;;;;;5.04;75.62;100974.00;4999414;28;45922;-75
2022/01/07 05:04:13;;;;;;;;;6.25;5.00;;;;;5.13;75.25;100974.28;4999704;28;45492;-77
2022/01/07 05:06:45;;;;;;;;;6.25;6.25;;;;;5.11;75.22;100970.72;4999804;28;45181;-75
2022/01/07 05:09:13;;;;;;;;;5.25;5.25;;;;;5.09;74.83;100959.34;4980624;28;45318;-77
2022/01/07 05:11:39;;;;;;;;;5.50;5.00;;;;;5.15;75.01;100971.72;4991788;28;46171;-78
2022/01/07 05:14:04;;;;;;;;;9.50;9.50;;;;;5.05;75.20;100933.09;5000274;28;45230;-77
2022/01/07 05:16:30;;;;;;;;;7.50;5.00;;;;;5.15;74.98;100958.66;5000145;28;45233;-77
2022/01/07 05:18:55;;;;;;;;;9.25;6.00;;;;;5.03;75.55;100930.44;4981861;28;45368;-77
2022/01/07 05:21:20;;;;;;;;;3.25;3.25;;;;;5.03;75.71;100935.66;4999092;28;46206;-76
2022/01/07 05:23:46;;;;;;;;;6.75;6.00;;;;;4.84;76.21;100930.69;4982236;28;45274;-77
2022/01/07 05:26:11;;;;;;;;;5.00;5.00;;;;;4.90;76.35;100962.19;5000054;28;45715;-74
2022/01/07 05:28:37;;;;;;;;;8.25;8.25;;;;;4.93;76.25;100972.72;4999315;28;45432;-77
2022/01/07 05:31:03;;;;;;;;;7.00;6.00;;;;;4.91;76.79;100971.78;4982444;28;46343;-77
2022/01/07 05:33:28;;;;;;;;;4.75;4.75;;;;;4.70;76.34;100932.81;4998816;28;45405;-77
2022/01/07 05:35:54;;;;;;;;;5.00;4.00;;;;;4.89;76.52;100976.06;4998783;28;45528;-77
2022/01/07 05:38:19;;;;;;;;;7.25;4.50;;;;;4.78;77.00;100962.66;4999520;28;45261;-77
2022/01/07 05:40:45;;;;;;;;;5.00;4.00;;;;;4.87;76.75;100977.75;4999271;28;47099;-78
2022/01/07 05:43:10;;;;;;;;;5.75;5.00;;;;;4.83;76.73;100978.47;4999490;28;45411;-77
2022/01/07 05:45:35;;;;;;;;;4.00;4.00;;;;;4.84;76.56;100965.50;4999379;28;45640;-75
2022/01/07 05:48:03;;;;;;;;;7.50;7.25;;;;;4.87;77.09;100977.75;4999365;28;45357;-77
2022/01/07 05:50:28;;;;;;;;;5.00;5.00;;;;;4.84;76.73;100977.66;4998726;28;46377;-75
2022/01/07 05:52:54;;;;;;;;;2.00;2.00;;;;;4.80;76.36;100962.72;4999075;28;45227;-76
2022/01/07 05:55:19;;;;;;;;;4.25;3.50;;;;;4.77;76.79;100962.63;4999313;28;45277;-77
2022/01/07 05:57:44;;;;;;;;;7.50;5.50;;;;;4.86;76.87;100975.97;4999149;28;45317;-76
2022/01/07 06:00:11;;;;;;;;;7.00;5.25;;;;;4.82;77.19;100972.34;4999133;28;46301;-75
2022/01/07 06:02:36;;;;;;;;;8.25;6.00;;;;;4.71;77.15;100965.88;4998825;28;45346;-74
2022/01/07 06:05:02;;;;;;;;;4.50;4.00;;;;;4.76;77.07;100972.16;4997914;28;45272;-74
2022/01/07 06:07:27;;;;;;;;;8.75;8.75;;;;;4.71;77.54;100962.38;4999325;28;45480;-75
2022/01/07 06:09:53;;;;;;;;;6.00;6.00;;;;;4.45;77.34;100910.19;4998810;28;46634;-76
2022/01/07 06:12:18;;;;;;;;;7.00;5.25;;;;;4.76;77.05;100966.94;4998691;28;45311;-76
2022/01/07 06:14:44;;;;;;;;;8.25;5.75;;;;;4.68;77.36;100947.53;4998894;28;45309;-76
2022/01/07 06:17:10;;;;;;;;;5.50;5.50;;;;;4.81;77.57;100973.19;4998829;28;45388;-74
2022/01/07 06:19:36;;;;;;;;;7.50;7.50;;;;;4.81;77.60;100977.53;4998684;28;45344;-77
2022/01/07 06:22:02;;;;;;;;;8.50;5.00;;;;;4.84;77.78;100983.75;4998881;28;45440;-73
2022/01/07 06:24:27;;;;;;;;;7.00;5.00;;;;;4.83;77.49;100965.41;4981196;28;45342;-75
2022/01/07 06:26:53;;;;;;;;;5.00;5.00;;;;;5.00;77.40;100989.47;4997461;28;46783;-74
2022/01/07 06:29:18;;;;;;;;;4.00;3.75;;;;;5.03;77.32;100990.50;4980778;28;46047;-72
2022/01/07 06:31:43;;;;;;;;;6.50;5.00;;;;;5.08;77.65;100991.53;4997068;28;45526;-76
2022/01/07 06:34:09;;;;;;;;;7.50;7.50;;;;;5.21;77.56;101002.34;4996803;28;45372;-77
2022/01/07 06:36:34;;;;;;;;;6.00;5.00;;;;;5.22;76.69;100980.66;4998613;28;45500;-76
2022/01/07 06:38:59;;;;;;;;;5.00;5.00;;;;;5.31;76.61;100980.97;4998310;28;45590;-77
2022/01/07 06:41:25;;;;;;;;;6.00;6.00;;;;;5.38;77.03;100983.78;4998239;28;45260;-77
2022/01/07 06:43:50;;;;;;;;;7.00;6.00;;;;;5.45;76.32;100971.81;4998527;28;45305;-77
2022/01/07 06:46:16;;;;;;;;;5.00;5.00;;;;;5.33;76.97;100950.53;4997974;28;45215;-77
2022/01/07 06:48:41;;;;;;;;;4.75;4.75;;;;;5.32;77.01;100957.50;4997639;28;45226;-75
2022/01/07 06:51:07;;;;;;;;;8.25;5.00;;;;;5.45;77.05;100974.44;4998002;28;45227;-77
2022/01/07 06:53:33;;;;;;;;;6.00;6.00;;;;;5.43;77.10;100956.09;4997648;28;45248;-70
2022/01/07 06:55:59;;;;;;;;;7.25;7.25;;;;;5.42;77.27;100956.94;4997005;28;45253;-74
2022/01/07 06:58:25;;;;;;;;;5.00;5.00;;;;;5.44;76.83;100959.59;4997403;28;45641;-75
2022/01/07 07:00:50;;;;;;;;;10.50;6.50;;;;;5.49;77.33;100950.19;4997463;28;45314;-77
2022/01/07 07:03:15;;;;;;;;;5.50;5.50;;;;;5.50;77.40;100944.13;4997723;28;45600;-76
2022/01/07 07:05:41;;;;;;;;;10.25;6.25;;;;;5.65;77.37;100975.94;4997759;28;47035;-72
2022/01/07 07:08:06;;;;;;;;;11.00;6.00;;;;;5.60;76.93;100953.13;4979318;28;47909;-76
2022/01/07 07:10:32;;;;;;;;;5.50;5.50;;;;;5.67;77.17;100974.25;4996409;28;45449;-75
2022/01/07 07:12:57;;;;;;;;;6.00;4.00;;;;;5.53;77.18;100945.94;4996599;28;45517;-73
2022/01/07 07:15:22;;;;;;;;;7.00;5.00;;;;;5.77;77.09;100985.00;4990886;28;45338;-73
2022/01/07 07:17:48;;;;;;;;;5.00;5.00;;;;;5.76;76.64;100983.22;4997415;28;47189;-73
2022/01/07 07:20:14;;;;;;;;;6.00;5.00;;;;;5.72;77.10;100970.06;4997358;28;45356;-71
2022/01/07 07:22:39;;;;;;;;;2.75;2.50;;;;;5.77;76.68;100979.75;4997701;28;46519;-73
2022/01/07 07:25:05;;;;;;;;;9.00;6.50;;;;;5.81;76.86;100984.25;4998120;28;45314;-76
2022/01/07 07:27:30;;;;;;;;;6.00;6.00;;;;;5.81;76.93;100979.91;4997135;28;47260;-75
2022/01/07 07:29:56;;;;;;;;;5.00;5.00;;;;;5.87;76.82;100969.66;4997923;28;45283;-74
2022/01/07 07:32:26;;;;;;;;;9.75;5.50;;;;;5.82;77.51;100968.63;4996086;28;45491;-73
2022/01/07 07:37:26;;;;;;;;;6.00;6.00;;;;;5.93;76.77;100976.81;4995188;28;46140;-74
2022/01/07 07:39:51;;;;;;;;;4.00;3.50;;;;;5.95;76.96;100983.84;4996636;28;45462;-72
2022/01/07 07:42:17;;;;;;;;;5.50;5.50;;;;;5.98;77.65;100989.19;4996519;28;45473;-71
2022/01/07 07:44:42;;;;;;;;;5.00;5.00;;;;;6.08;77.18;100994.69;4997502;28;45583;-73
2022/01/07 07:47:08;;;;;;;;;5.50;5.00;;;;;6.06;76.72;100997.28;4996918;28;46705;-72
2022/01/07 07:49:34;;;;;;;;;9.75;6.00;;;;;6.04;77.61;100996.31;4996431;28;45443;-73
2022/01/07 07:51:59;;;;;;;;;6.00;6.00;;;;;6.14;77.16;101013.16;4994749;28;45531;-72
2022/01/07 07:54:25;;;;;;;;;5.00;5.00;;;;;6.14;77.52;101016.69;4999678;28;45549;-72
2022/01/07 07:56:50;;;;;;;;;10.50;5.00;;;;;6.16;77.89;101021.97;4996283;28;46129;-72
2022/01/07 07:59:16;;;;;;;;;10.00;6.75;;;;;6.07;77.69;101012.13;4997730;28;45431;-71
2022/01/07 08:01:42;;;;;;;;;5.75;5.00;;;;;6.19;77.87;101022.06;4997018;28;45225;-70
2022/01/07 08:04:11;;;;;;;;;4.00;4.00;;;;;6.13;78.29;101017.50;4979213;28;45518;-74
2022/01/07 08:06:36;;;;;;;;;7.50;6.25;;;;;6.17;78.69;101011.56;4996542;28;46391;-71
2022/01/07 08:09:03;;;;;;;;;9.00;6.00;;;;;6.09;77.99;101006.94;4997169;28;45425;-74
2022/01/07 08:11:32;;;;;;;;;7.50;5.50;;;;;6.12;78.68;101010.50;4997629;28;45413;-75
2022/01/07 08:16:41;;;;;;;;;5.00;5.00;;;;;6.10;79.44;101006.09;4997328;28;45201;-76
2022/01/07 08:19:06;;;;;;;;;5.50;4.50;;;;;6.13;79.88;101000.94;4997222;28;45347;-77
2022/01/07 08:21:32;;;;;;;;;6.00;6.00;;;;;5.97;79.47;100997.00;4997634;28;45374;-78
2022/01/07 08:23:59;;;;;;;;;4.50;4.50;;;;;6.11;80.24;101023.56;4998644;28;45892;-77
2022/01/07 08:26:25;;;;;;;;;5.75;5.25;;;;;6.14;79.69;101032.41;4998440;28;46391;-75
2022/01/07 08:29:02;;;;;;;;;6.00;6.00;;;;;6.15;79.58;101028.94;5000698;28;45362;-76
2022/01/07 08:36:41;;;;;;;;;5.00;5.00;;;;;6.11;79.57;101008.75;5000928;28;45776;-78
2022/01/07 08:39:08;;;;;;;;;2.00;2.00;;;;;6.17;78.77;101013.28;4981929;28;45300;-76
2022/01/07 08:41:34;;;;;;;;;2.25;2.25;;;;;6.18;79.23;101013.31;5000034;28;45303;-73
2022/01/07 08:44:00;;;;;;;;;7.50;5.50;;;;;6.15;79.21;101007.13;5000307;28;45448;-75
2022/01/07 08:46:26;;;;;;;;;3.50;2.00;;;;;6.19;79.24;101011.59;4980435;28;46315;-75
2022/01/07 08:48:51;;;;;;;;;3.00;1.75;;;;;6.20;78.83;101013.38;4980174;28;45331;-75
2022/01/07 08:51:17;;;;;;;;;2.50;2.50;;;;;6.17;78.67;101001.09;4980414;28;45396;-74
2022/01/07 08:53:43;;;;;;;;;7.25;6.50;;;;;6.01;78.60;100980.56;4987653;28;45423;-75
2022/01/07 08:56:08;;;;;;;;;6.75;5.00;;;;;6.11;78.22;100977.34;4999777;28;46193;-74
2022/01/07 08:58:34;;;;;;;;;3.50;2.00;;;;;6.14;78.60;100967.00;4999987;28;45504;-76
2022/01/07 09:00:59;;;;;;;;;5.75;3.00;;;;;6.04;79.25;100938.78;4999853;28;45508;-75
2022/01/07 09:03:25;;;;;;;;;2.50;1.00;;;;;6.03;79.22;100952.72;5000031;28;45241;-75
2022/01/07 09:05:51;;;;;;;;;1.25;0.00;;;;;6.08;78.63;100950.25;4999244;28;46124;-76
2022/01/07 09:08:17;;;;;;;;;2.75;1.25;;;;;5.98;79.18;100896.78;4999703;28;45222;-72
2022/01/07 09:10:43;;;;;;;;;3.00;1.50;;;;;6.03;79.53;100937.03;4999977;28;45265;-75
2022/01/07 09:13:09;;;;;;;;;2.00;2.00;;;;;6.07;78.66;100969.41;4999802;28;45185;-77
2022/01/07 09:15:35;;;;;;;;;1.00;1.00;;;;;6.12;78.64;100966.06;5000179;28;46733;-78
2022/01/07 09:18:09;;;;;;;;;1.00;1.00;;;;;6.20;77.55;100975.00;4981727;28;45365;-76
2022/01/07 09:20:45;;;;;;;;;2.75;1.75;;;;;6.27;77.58;100982.19;4999171;28;45524;-77
2022/01/07 09:23:11;;;;;;;;;1.00;1.00;;;;;6.36;77.51;100993.78;4999604;28;45554;-74
2022/01/07 09:25:37;;;;;;;;;2.00;2.00;;;;;6.37;77.37;100985.97;4999383;28;47116;-75
2022/01/07 09:28:05;;;;;;;;;1.50;1.50;;;;;6.42;78.13;100980.84;4999505;28;45308;-76
2022/01/07 09:30:31;;;;;;;;;2.00;2.00;;;;;6.49;76.71;100973.22;4999401;28;45286;-77
2022/01/07 09:32:57;;;;;;;;;2.00;2.00;;;;;6.75;76.57;100986.13;4999245;28;45483;-76
2022/01/07 09:35:23;;;;;;;;;1.00;1.00;;;;;6.90;76.03;100967.34;4981541;28;47512;-76
2022/01/07 09:37:50;;;;;;;;;1.75;1.75;;;;;7.10;74.63;100982.69;4999471;28;45223;-76
2022/01/07 09:40:16;;;;;;;;;3.00;3.00;;;;;7.26;74.20;101001.41;4998191;28;45354;-76
2022/01/07 09:42:57;;;;;;;;;1.00;1.00;;;;;7.43;73.86;100987.88;4999439;28;45480;-75
2022/01/07 09:45:25;;;;;;;;;2.25;2.25;;;;;7.35;74.25;100997.31;4999310;28;45337;-75
2022/01/07 09:47:52;;;;;;;;;1.75;1.75;;;;;7.30;73.90;100985.81;4997837;28;45614;-76
2022/01/07 09:50:17;;;;;;;;;2.00;2.00;;;;;7.61;73.12;100992.66;4999046;28;45518;-76
2022/01/07 09:52:43;;;;;;;;;1.25;1.25;;;;;8.07;71.27;100987.56;4999066;28;45438;-77
2022/01/07 09:55:09;;;;;;;;;2.75;2.75;;;;;8.19;70.89;100995.69;4998586;28;47225;-75
2022/01/07 09:57:34;;;;;;;;;3.00;2.00;;;;;8.12;70.69;100986.81;4998682;28;45312;-75
2022/01/07 10:00:00;;;;;;;;;2.00;2.00;;;;;10.08;65.96;100988.50;4998980;28;45295;-73
2022/01/07 10:02:25;;;;;;;;;2.50;2.50;;;;;11.11;61.91;100969.50;4999008;28;45226;-76
2022/01/07 10:04:51;;;;;;;;;2.00;2.00;;;;;10.80;63.59;100963.06;4980986;28;47867;-76
2022/01/07 10:07:25;;;;;;;;;2.00;2.00;;;;;12.91;58.34;100969.56;4998951;28;45375;-76
2022/01/07 10:09:59;;;;;;;;;2.00;2.00;;;;;15.10;52.73;100974.31;4998852;28;45285;-74
2022/01/07 10:12:26;;;;;;;;;3.00;3.00;;;;;16.65;46.74;100962.94;4997903;28;45545;-74
2022/01/07 10:15:16;;;;;;;;;1.25;1.25;;;;;18.10;43.68;100962.34;4993828;28;46406;-71
2022/01/07 10:17:54;;;;;;;;;1.75;1.75;;;;;18.87;41.42;100956.25;4996019;28;45500;-72
2022/01/07 10:20:27;;;;;;;;;2.00;2.00;;;;;16.81;43.92;100969.84;4997150;28;45440;-75
2022/01/07 10:22:58;;;;;;;;;3.50;3.00;;;;;15.13;48.53;100952.16;4997365;28;45417;-75
2022/01/07 10:25:26;;;;;;;;;1.00;1.00;;;;;15.06;48.54;100961.06;4996293;28;45346;-75
2022/01/07 10:27:52;;;;;;;;;4.50;4.50;;;;;14.17;49.77;100950.94;4996743;28;46485;-74
2022/01/07 10:30:26;;;;;;;;;2.75;2.00;;;;;13.49;51.46;100953.75;4996956;28;45520;-72
2022/01/07 10:32:55;;;;;;;;;3.00;2.00;;;;;13.95;50.84;100950.13;4996884;28;45370;-75
2022/01/07 10:35:24;;;;;;;;;2.75;2.00;;;;;13.39;52.34;100968.75;4978471;28;47235;-74
2022/01/07 10:37:56;;;;;;;;;2.00;2.00;;;;;13.52;52.55;100952.00;4996528;28;45237;-74
2022/01/07 10:40:30;;;;;;;;;3.00;1.75;;;;;12.83;53.15;100949.28;4997055;28;45654;-73
2022/01/07 10:43:24;;;;;;;;;2.00;2.00;;;;;12.12;54.75;100943.81;4997086;28;45460;-73
2022/01/07 10:45:55;;;;;;;;;2.00;2.00;;;;;11.66;56.52;100940.91;4995734;28;46942;-73
2022/01/07 10:48:23;;;;;;;;;2.75;2.75;;;;;11.91;56.78;100937.56;4996948;28;45574;-74
2022/01/07 10:50:52;;;;;;;;;1.00;1.00;;;;;12.01;56.43;100937.59;4996324;28;45320;-74
2022/01/07 10:53:19;;;;;;;;;1.50;1.50;;;;;11.80;55.53;100956.84;4997061;28;45210;-74
2022/01/07 10:56:02;;;;;;;;;1.50;1.50;;;;;12.07;55.20;100924.41;4995512;28;46690;-74
2022/01/07 10:58:29;;;;;;;;;1.75;1.75;;;;;12.44;54.64;100950.09;4995835;28;45364;-73
2022/01/07 11:00:55;;;;;;;;;1.25;1.25;;;;;11.81;55.80;100933.06;4996345;28;45325;-76
2022/01/07 11:03:22;;;;;;;;;1.00;1.00;;;;;11.23;57.01;100942.34;4996451;28;45407;-72
2022/01/07 11:05:48;;;;;;;;;3.00;2.00;;;;;10.84;58.72;100942.00;4996013;28;45417;-73
2022/01/07 11:08:15;;;;;;;;;3.00;3.00;;;;;10.55;59.52;100960.16;4995959;28;45419;-75
2022/01/07 11:10:41;;;;;;;;;1.00;1.00;;;;;10.27;60.69;100966.84;4995948;28;45191;-76
2022/01/07 11:13:08;;;;;;;;;1.00;1.00;;;;;9.97;60.30;100932.22;4996684;28;45295;-73
2022/01/07 11:15:35;;;;;;;;;1.00;1.00;;;;;9.87;60.90;100939.09;4995887;28;46199;-77
2022/01/07 11:18:01;;;;;;;;;1.00;1.00;;;;;9.73;61.54;100940.66;4995578;28;45574;-76
2022/01/07 11:20:26;;;;;;;;;3.75;0.00;;;;;9.77;61.62;100925.78;4995891;28;45450;-72
2022/01/07 11:22:52;;;;;;;;;0.50;0.50;;;;;9.89;60.97;100924.22;4996404;28;45376;-75
2022/01/07 11:25:18;;;;;;;;;0.25;0.25;;;;;9.64;61.51;100888.78;4995591;28;45368;-74
2022/01/07 11:27:50;;;;;;;;;0.50;0.50;;;;;9.80;61.75;100939.00;4995062;28;45335;-74
2022/01/07 11:30:19;;;;;;;;;2.50;1.50;;;;;9.78;61.52;100933.72;4995025;28;45356;-76
2022/01/07 11:32:49;;;;;;;;;1.00;1.00;;;;;9.77;60.84;100900.38;4995630;28;45405;-76
2022/01/07 11:35:20;;;;;;;;;0.25;0.25;;;;;10.06;61.85;100940.22;4978485;28;46184;-76